Crown King, Arizona
Current Conditions -  °F | °C
As of 11:53 PM on Wednesday 26 Nov 2014 (Local Time) from KPRC Reporting Station
Clear Clear  
Wind Chill: 34°   Ceiling: Unl
Heat Index: 39°   Visibility: 10mi
Dew Point: 17°   Wind: 7mph
Humidity: 41%   Direction: 170°S
Pressure: 30.4"   Gusts: NA
Location:  34.21°N, 112.34°W
Report Text: KPRC 270653Z AUTO 17006KT 10SM CLR 04/M08 A3040 RMK AO2 SLP254 T00391083 402061006
Loading
Personal Weather Stations






























Interactive Weather Map New forecast layout! Learn more

10-Day Weather Forecast

Advertisements
Track Severe Weather on mobile